Time;durP1;ratioP1;P1;durP2;ratioP2;P2;SDS_P1;SDS_P2;PMS_P1;PMS_P2;Temp;Humidity;BMP_temperature;BMP_pressure;BME280_temperature;BME280_humidity;BME280_pressure;Samples;Min_cycle;Max_cycle;Signal;HPM_P1;HPM_P2
2023/12/01 00:00:20;;;;;;;36.03;11.57;;;-0.80;99.90;;;;;;5036722;28;20045;-90
2023/12/01 00:02:45;;;;;;;34.73;11.60;;;0.20;99.90;;;;;;5039066;28;20136;-90
2023/12/01 00:05:11;;;;;;;39.90;12.30;;;-0.90;99.90;;;;;;5038117;28;20110;-90
2023/12/01 00:07:37;;;;;;;44.13;13.63;;;-0.80;99.90;;;;;;5038880;28;20060;-90
2023/12/01 00:10:04;;;;;;;34.77;11.10;;;1.00;99.90;;;;;;5038564;28;20396;-90
2023/12/01 00:12:29;;;;;;;40.20;11.73;;;-0.70;99.90;;;;;;5037590;28;20052;-90
2023/12/01 00:14:55;;;;;;;41.33;11.90;;;-1.00;99.90;;;;;;5038591;28;20045;-90
2023/12/01 00:17:21;;;;;;;36.00;11.33;;;-0.90;99.90;;;;;;5038497;28;20037;-91
2023/12/01 00:19:47;;;;;;;36.43;11.90;;;-1.10;99.90;;;;;;5037995;28;20506;-90
2023/12/01 00:22:13;;;;;;;38.53;11.90;;;0.60;99.90;;;;;;5036305;28;20107;-90
2023/12/01 00:24:45;;;;;;;37.67;10.77;;;-1.00;99.90;;;;;;5038357;28;20045;-90
2023/12/01 00:27:11;;;;;;;29.50;9.87;;;-1.00;99.90;;;;;;5037751;28;20489;-90
2023/12/01 00:29:36;;;;;;;33.73;11.53;;;0.30;99.90;;;;;;5057310;28;20047;-91
2023/12/01 00:32:02;;;;;;;34.10;10.70;;;-1.00;99.90;;;;;;5083975;28;20017;-90
2023/12/01 00:34:27;;;;;;;26.90;9.77;;;-0.80;99.90;;;;;;5065803;28;20044;-90
2023/12/01 00:36:55;;;;;;;27.27;9.23;;;0.60;99.90;;;;;;5060444;28;20036;-91
2023/12/01 00:39:21;;;;;;;33.43;9.70;;;-0.90;99.90;;;;;;5057409;28;20052;-90
2023/12/01 00:41:46;;;;;;;31.97;9.53;;;-0.80;99.90;;;;;;5058063;28;20403;-91
2023/12/01 00:44:12;;;;;;;33.07;10.33;;;1.30;99.90;;;;;;5057695;28;20091;-90
2023/12/01 00:46:37;;;;;;;31.10;9.73;;;-1.10;99.90;;;;;;5057677;28;20051;-91
2023/12/01 00:49:03;;;;;;;28.20;9.53;;;-1.20;99.90;;;;;;5051383;28;20052;-91
2023/12/01 00:51:29;;;;;;;31.67;10.60;;;-1.10;99.90;;;;;;5038324;28;20049;-91
2023/12/01 00:53:55;;;;;;;32.70;10.57;;;0.10;99.90;;;;;;5037267;28;20041;-90
2023/12/01 00:56:20;;;;;;;30.70;9.97;;;-1.10;99.90;;;;;;5038020;28;20508;-90
2023/12/01 00:58:46;;;;;;;36.33;10.60;;;-1.00;99.90;;;;;;5037966;28;20140;-90
2023/12/01 01:01:12;;;;;;;33.57;10.47;;;-0.90;99.90;;;;;;5036995;28;20127;-90
2023/12/01 01:03:38;;;;;;;36.03;9.97;;;-0.30;99.90;;;;;;5038030;28;20051;-91
2023/12/01 01:06:04;;;;;;;37.33;11.07;;;-1.20;99.90;;;;;;5037852;28;20048;-91
2023/12/01 01:08:30;;;;;;;28.70;9.77;;;-1.00;99.90;;;;;;5036726;28;20048;-90
2023/12/01 01:10:56;;;;;;;32.07;9.43;;;-1.10;99.90;;;;;;5040372;28;20044;-90
2023/12/01 01:13:22;;;;;;;32.13;9.73;;;-1.20;99.90;;;;;;5037300;28;20405;-91
2023/12/01 01:15:58;;;;;;;39.30;9.70;;;-0.20;99.90;;;;;;5037026;28;20073;-91
2023/12/01 01:18:24;;;;;;;35.57;10.37;;;-1.20;99.90;;;;;;5040877;28;20079;-91
2023/12/01 01:20:50;;;;;;;33.03;10.60;;;-1.30;99.90;;;;;;5037773;28;20045;-90
2023/12/01 01:23:35;;;;;;;34.93;10.23;;;-0.40;99.90;;;;;;5050568;28;20053;-91
2023/12/01 01:26:02;;;;;;;25.20;8.87;;;-0.50;99.90;;;;;;5057647;28;20051;-91
2023/12/01 01:28:28;;;;;;;29.17;8.80;;;0.10;99.90;;;;;;5058105;28;20055;-91
2023/12/01 01:30:54;;;;;;;28.87;8.23;;;0.10;99.90;;;;;;5056303;28;20044;-91
2023/12/01 01:33:22;;;;;;;23.40;8.33;;;0.10;99.90;;;;;;5058771;28;20041;-91
2023/12/01 01:35:48;;;;;;;26.77;8.53;;;-0.20;99.90;;;;;;5057127;28;20052;-91
2023/12/01 01:38:13;;;;;;;30.77;8.70;;;-1.20;99.90;;;;;;5057682;28;20037;-91
2023/12/01 01:40:39;;;;;;;29.97;8.67;;;-1.30;99.90;;;;;;5057640;28;20048;-91
2023/12/01 01:43:21;;;;;;;35.40;9.77;;;-1.30;99.90;;;;;;5056110;28;20080;-91
2023/12/01 01:45:52;;;;;;;30.80;10.40;;;-1.20;99.90;;;;;;5057077;28;20106;-91
2023/12/01 01:48:18;;;;;;;29.47;8.67;;;-0.40;99.90;;;;;;5057111;28;20049;-92
2023/12/01 01:50:44;;;;;;;29.87;9.80;;;-0.10;99.90;;;;;;5056172;28;20048;-91
2023/12/01 01:53:09;;;;;;;31.60;9.63;;;-1.30;99.90;;;;;;5056472;28;20098;-91
2023/12/01 01:55:35;;;;;;;32.73;9.47;;;-0.10;99.90;;;;;;5056479;28;20063;-91
2023/12/01 01:58:03;;;;;;;27.97;9.77;;;-1.30;99.90;;;;;;5055809;28;20055;-91
2023/12/01 02:00:34;;;;;;;28.13;8.33;;;-1.40;99.90;;;;;;5200617;23;20557;-92
2023/12/01 02:03:00;;;;;;;25.63;8.43;;;-1.30;99.90;;;;;;5056130;28;20048;-91
2023/12/01 02:05:34;;;;;;;25.43;8.53;;;-1.50;99.90;;;;;;5055331;28;20092;-91
2023/12/01 02:08:44;;;;;;;26.13;8.27;;;-1.20;99.90;;;;;;5055623;28;20101;-91
2023/12/01 02:11:10;;;;;;;23.80;7.77;;;-1.40;99.90;;;;;;5028320;28;20049;-91
2023/12/01 02:13:44;;;;;;;25.40;7.97;;;-1.70;99.90;;;;;;5056359;28;20455;-91
2023/12/01 02:16:16;;;;;;;22.67;8.33;;;-1.60;99.90;;;;;;5041874;28;20055;-91
2023/12/01 02:18:58;;;;;;;30.27;8.50;;;-1.70;99.90;;;;;;5036684;28;20388;-91
2023/12/01 02:21:24;;;;;;;24.03;8.80;;;-1.20;99.90;;;;;;5056100;28;20048;-91
2023/12/01 02:23:54;;;;;;;24.20;8.40;;;-0.10;99.90;;;;;;5055456;28;20044;-91
2023/12/01 02:26:21;;;;;;;25.37;8.07;;;-1.90;99.90;;;;;;5055203;28;20094;-92
2023/12/01 02:28:47;;;;;;;30.27;9.40;;;-1.60;99.90;;;;;;5056294;28;20553;-91
2023/12/01 02:31:13;;;;;;;27.87;9.50;;;0.50;99.90;;;;;;5055945;28;20040;-93
2023/12/01 02:33:39;;;;;;;22.77;8.93;;;-1.80;99.90;;;;;;5055312;28;20036;-91
2023/12/01 02:36:08;;;;;;;24.70;7.57;;;-1.60;99.90;;;;;;5072096;28;20607;-92
2023/12/01 02:38:35;;;;;;;29.77;8.73;;;-1.30;99.90;;;;;;5055731;28;20115;-91
2023/12/01 02:41:02;;;;;;;28.27;8.93;;;-1.70;99.90;;;;;;5054816;28;20434;-92
2023/12/01 02:43:37;;;;;;;24.33;7.50;;;-1.90;99.90;;;;;;5055869;28;20445;-92
2023/12/01 02:46:13;;;;;;;;;;;;;;;;;;;;;
2023/12/01 02:48:57;;;;;;;24.07;7.73;;;-1.80;99.90;;;;;;5053997;28;20064;-92
2023/12/01 02:51:25;;;;;;;24.30;7.57;;;-1.80;99.90;;;;;;5055874;28;20094;-92
2023/12/01 02:54:06;;;;;;;25.13;7.80;;;-1.90;99.90;;;;;;5057246;28;20048;-92
2023/12/01 02:57:17;;;;;;;24.00;7.60;;;-2.30;99.90;;;;;;5055357;28;20040;-91
2023/12/01 02:59:42;;;;;;;25.37;8.53;;;-1.60;99.90;;;;;;5055448;28;20504;-92
2023/12/01 03:02:08;;;;;;;24.53;7.37;;;-2.20;99.90;;;;;;5054058;28;20080;-91
2023/12/01 03:04:49;;;;;;;21.80;7.83;;;-1.60;99.90;;;;;;5054812;28;20044;-92
2023/12/01 03:07:27;;;;;;;25.83;7.47;;;-2.20;99.90;;;;;;5055002;28;20040;-92
2023/12/01 03:10:02;;;;;;;24.13;8.17;;;0.20;99.90;;;;;;5055105;28;20093;-92
2023/12/01 03:12:38;;;;;;;20.23;7.67;;;-1.90;99.90;;;;;;5055936;28;20040;-92
2023/12/01 03:15:20;;;;;;;22.67;7.43;;;-2.20;99.90;;;;;;5055090;28;20094;-92
2023/12/01 03:17:47;;;;;;;25.33;8.60;;;-1.80;99.90;;;;;;5055422;28;20045;-93
2023/12/01 03:20:19;;;;;;;21.53;7.73;;;-0.60;99.90;;;;;;5054763;28;20205;-92
2023/12/01 03:22:51;;;;;;;23.90;7.47;;;-1.90;99.90;;;;;;5056757;28;20075;-91
2023/12/01 03:25:17;;;;;;;21.57;6.60;;;-0.40;99.90;;;;;;5056174;28;20076;-92
2023/12/01 03:27:55;;;;;;;25.33;8.00;;;-2.20;99.90;;;;;;5054894;28;20079;-92
2023/12/01 03:30:21;;;;;;;24.43;9.20;;;-1.90;99.90;;;;;;5065821;28;20040;-91
2023/12/01 03:32:48;;;;;;;26.33;8.13;;;-2.10;99.90;;;;;;5080856;28;20025;-92
2023/12/01 03:38:58;;;;;;;24.07;8.23;;;-2.00;99.90;;;;;;5074286;28;20384;-92
2023/12/01 03:41:23;;;;;;;25.30;7.90;;;-1.80;99.90;;;;;;5055096;28;20075;-92
2023/12/01 03:44:07;;;;;;;24.57;8.07;;;-2.40;99.90;;;;;;5055048;28;20437;-92
2023/12/01 03:46:45;;;;;;;21.75;6.85;;;-1.50;99.90;;;;;;5055206;28;20045;-92
2023/12/01 03:49:11;;;;;;;27.27;8.57;;;-0.70;99.90;;;;;;5054522;28;20495;-92
2023/12/01 03:51:37;;;;;;;21.43;7.97;;;-2.60;99.90;;;;;;5054635;28;20131;-93
2023/12/01 03:57:05;;;;;;;27.43;8.47;;;-1.80;99.90;;;;;;5573427;22;20504;-92
2023/12/01 03:59:34;;;;;;;23.53;7.77;;;-2.80;99.90;;;;;;5054839;28;20044;-92
2023/12/01 04:02:01;;;;;;;23.40;7.67;;;-0.90;99.90;;;;;;5054492;28;20044;-91
2023/12/01 04:04:26;;;;;;;24.03;8.53;;;-0.70;99.90;;;;;;5053915;28;20078;-93
2023/12/01 04:06:54;;;;;;;30.10;8.90;;;-2.20;99.90;;;;;;5054367;28;20040;-91
2023/12/01 04:09:20;;;;;;;28.93;8.87;;;-2.20;99.90;;;;;;5054478;28;20178;-92
2023/12/01 04:11:45;;;;;;;23.57;8.60;;;-1.60;99.90;;;;;;5053925;28;20127;-91
2023/12/01 04:14:11;;;;;;;28.53;8.37;;;-2.20;99.90;;;;;;5054030;28;20129;-91
2023/12/01 04:16:37;;;;;;;26.43;8.43;;;-0.80;99.90;;;;;;5054482;28;20127;-91
2023/12/01 04:19:03;;;;;;;29.53;10.00;;;-2.30;99.90;;;;;;5053850;28;20056;-91
2023/12/01 04:21:29;;;;;;;30.10;9.67;;;-2.30;99.90;;;;;;5054728;28;20399;-91
2023/12/01 04:23:54;;;;;;;26.33;8.97;;;-2.20;99.90;;;;;;5054074;28;20051;-91
2023/12/01 04:26:20;;;;;;;28.33;8.83;;;-2.50;99.90;;;;;;5053892;28;20071;-91
2023/12/01 04:28:45;;;;;;;26.03;8.80;;;-2.60;99.90;;;;;;5054944;28;20452;-91
2023/12/01 04:31:11;;;;;;;26.13;9.03;;;-2.30;99.90;;;;;;5054063;28;20587;-91
2023/12/01 04:33:37;;;;;;;24.70;8.53;;;-2.40;99.90;;;;;;5053714;28;20550;-91
2023/12/01 04:36:11;;;;;;;25.53;8.63;;;-2.40;99.90;;;;;;5053814;28;20051;-90
2023/12/01 04:38:37;;;;;;;29.33;9.60;;;-2.30;99.90;;;;;;5061969;22;20238;-91
2023/12/01 04:41:53;;;;;;;26.97;8.83;;;-1.40;99.90;;;;;;5073185;28;20051;-90
2023/12/01 04:44:23;;;;;;;28.43;9.77;;;-3.10;99.90;;;;;;5073634;28;20044;-90
2023/12/01 04:46:55;;;;;;;28.43;8.90;;;-2.10;99.90;;;;;;5076585;28;20376;-90
2023/12/01 04:49:23;;;;;;;28.63;9.13;;;-2.00;99.90;;;;;;5077534;28;20503;-90
2023/12/01 04:51:48;;;;;;;29.80;8.80;;;-1.70;99.90;;;;;;5078056;28;20147;-90
2023/12/01 04:54:14;;;;;;;26.63;9.17;;;-2.70;99.90;;;;;;5076689;28;20036;-91
2023/12/01 04:56:40;;;;;;;27.13;9.53;;;-1.30;99.90;;;;;;5077911;28;20044;-90
2023/12/01 04:59:08;;;;;;;27.97;8.10;;;-2.60;99.90;;;;;;5080118;28;20047;-90
2023/12/01 05:01:39;;;;;;;26.50;8.60;;;-1.20;99.90;;;;;;5077418;28;20052;-90
2023/12/01 05:04:05;;;;;;;28.83;9.43;;;-1.30;99.90;;;;;;5058070;28;20044;-90
2023/12/01 05:06:39;;;;;;;27.70;9.40;;;-2.10;99.90;;;;;;5059583;28;20108;-89
2023/12/01 05:09:16;;;;;;;24.73;8.50;;;-2.60;99.90;;;;;;5060170;28;20040;-90
2023/12/01 05:12:00;;;;;;;29.37;10.33;;;-2.10;99.90;;;;;;5057423;28;20044;-90
2023/12/01 05:14:26;;;;;;;29.90;8.97;;;-2.40;99.90;;;;;;5056888;28;20102;-90
2023/12/01 05:16:58;;;;;;;24.33;8.53;;;-2.10;99.90;;;;;;5057760;28;20472;-90
2023/12/01 05:19:23;;;;;;;24.17;8.40;;;-1.10;99.90;;;;;;5057571;28;20499;-90
2023/12/01 05:22:10;;;;;;;25.20;8.10;;;-2.90;99.90;;;;;;5056612;28;20135;-90
2023/12/01 05:24:35;;;;;;;29.97;9.33;;;-3.70;99.90;;;;;;5057490;28;20036;-90
2023/12/01 05:27:07;;;;;;;28.17;8.87;;;-2.90;99.90;;;;;;5056892;28;20059;-90
2023/12/01 05:29:35;;;;;;;26.47;7.90;;;-2.90;99.90;;;;;;5056571;28;20425;-90
2023/12/01 05:32:02;;;;;;;29.20;9.10;;;-2.80;99.90;;;;;;5056997;28;20144;-90
2023/12/01 05:34:36;;;;;;;29.03;9.73;;;-2.70;99.90;;;;;;5057006;28;20511;-90
2023/12/01 05:37:17;;;;;;;25.20;7.57;;;-3.10;99.90;;;;;;5056187;28;20045;-90
2023/12/01 05:39:42;;;;;;;26.83;9.17;;;-3.00;99.90;;;;;;5056792;28;20557;-90
2023/12/01 05:42:08;;;;;;;27.20;9.23;;;-3.00;99.90;;;;;;5056453;28;20045;-90
2023/12/01 05:44:34;;;;;;;27.97;8.43;;;-1.80;99.90;;;;;;5057124;28;20054;-90
2023/12/01 05:47:00;;;;;;;30.00;9.40;;;;;;;;;;5056915;28;20098;-89
2023/12/01 05:49:26;;;;;;;26.63;9.00;;;-2.70;99.90;;;;;;5056288;28;20392;-89
2023/12/01 05:51:51;;;;;;;27.50;8.13;;;-3.10;99.90;;;;;;5056677;28;20075;-90
2023/12/01 05:54:17;;;;;;;28.57;8.07;;;-1.70;99.90;;;;;;5057294;28;20048;-89
2023/12/01 06:00:22;;;;;;;23.47;7.80;;;-1.50;99.90;;;;;;5061458;28;20051;-89
2023/12/01 06:05:37;;;;;;;21.03;6.87;;;-3.30;99.90;;;;;;5074729;28;20045;-89
2023/12/01 06:08:04;;;;;;;22.80;8.10;;;-1.90;99.90;;;;;;5059633;28;20085;-89
2023/12/01 06:10:42;;;;;;;21.37;6.67;;;-3.00;99.90;;;;;;5055605;28;20131;-87
2023/12/01 06:13:08;;;;;;;21.90;7.03;;;-1.90;99.90;;;;;;5055069;28;20079;-89
2023/12/01 06:15:33;;;;;;;19.47;7.10;;;-3.40;99.90;;;;;;5066957;28;20072;-89
2023/12/01 06:18:00;;;;;;;20.47;6.80;;;-3.20;99.90;;;;;;5073325;28;20407;-90
2023/12/01 06:20:26;;;;;;;19.27;7.13;;;-3.30;99.90;;;;;;5056239;28;20109;-91
2023/12/01 06:22:56;;;;;;;20.23;7.00;;;-3.20;99.90;;;;;;5055555;28;20045;-90
2023/12/01 06:25:27;;;;;;;16.97;5.67;;;-3.40;99.90;;;;;;5055312;28;20072;-88
2023/12/01 06:27:53;;;;;;;17.17;6.33;;;-3.40;99.90;;;;;;5072117;28;20128;-89
2023/12/01 06:30:33;;;;;;;18.30;6.23;;;-3.30;99.90;;;;;;5056980;28;20102;-90
2023/12/01 06:33:46;;;;;;;18.60;6.73;;;-3.30;99.90;;;;;;5069038;28;20044;-89
2023/12/01 06:36:12;;;;;;;19.47;6.63;;;-2.90;99.90;;;;;;5071410;28;20063;-90
2023/12/01 06:38:40;;;;;;;20.93;6.03;;;-2.60;99.90;;;;;;5055176;28;20372;-89
2023/12/01 06:41:26;;;;;;;19.33;6.50;;;-4.80;99.90;;;;;;5054625;28;20049;-95
2023/12/01 06:44:05;;;;;;;16.40;5.30;;;-2.90;99.90;;;;;;5063794;28;20044;-89
2023/12/01 06:46:39;;;;;;;20.90;7.00;;;-3.70;99.90;;;;;;5054385;28;20067;-91
2023/12/01 06:49:13;;;;;;;20.67;6.93;;;-4.10;99.90;;;;;;5056723;28;20076;-88
2023/12/01 06:51:39;;;;;;;18.33;5.87;;;-3.80;99.90;;;;;;5065053;28;20081;-89
2023/12/01 06:54:05;;;;;;;16.63;5.57;;;-2.90;99.90;;;;;;5061658;28;20084;-89
2023/12/01 06:56:38;;;;;;;19.07;5.73;;;-3.80;99.90;;;;;;5052363;28;20103;-89
2023/12/01 06:59:09;;;;;;;18.90;6.13;;;-3.90;99.90;;;;;;5051908;28;20052;-87
2023/12/01 07:01:35;;;;;;;16.87;5.73;;;-4.10;99.90;;;;;;5051957;28;20078;-91
2023/12/01 07:04:14;;;;;;;21.23;7.60;;;-1.60;99.90;;;;;;5052308;28;20076;-89
2023/12/01 07:06:45;;;;;;;15.00;4.97;;;-3.50;99.90;;;;;;5064703;28;20403;-87
2023/12/01 07:09:27;;;;;;;16.83;6.07;;;-2.00;99.90;;;;;;5069553;28;20499;-87
2023/12/01 07:11:53;;;;;;;17.87;5.90;;;-4.40;99.90;;;;;;5063863;28;20037;-89
2023/12/01 07:14:19;;;;;;;18.43;6.30;;;-4.20;99.90;;;;;;5069890;28;20047;-89
2023/12/01 07:16:45;;;;;;;15.70;5.47;;;-4.30;99.90;;;;;;5072215;28;20484;-91
2023/12/01 07:19:16;;;;;;;19.70;6.10;;;-2.90;99.90;;;;;;5071865;28;20048;-92
2023/12/01 07:22:03;;;;;;;18.70;6.23;;;-3.30;99.90;;;;;;5071772;28;20040;-87
2023/12/01 07:24:31;;;;;;;17.07;5.63;;;-3.70;99.90;;;;;;5065855;22;20111;-86
2023/12/01 07:26:56;;;;;;;16.90;6.17;;;-3.50;99.90;;;;;;5047854;28;20056;-87
2023/12/01 07:29:22;;;;;;;18.90;6.40;;;-4.40;99.90;;;;;;5030807;28;20038;-86
2023/12/01 07:32:15;;;;;;;19.10;6.23;;;-4.60;99.90;;;;;;5032494;28;20037;-86
2023/12/01 07:34:50;;;;;;;19.17;6.47;;;-4.90;99.90;;;;;;5032204;28;20045;-87
2023/12/01 07:37:19;;;;;;;17.23;6.23;;;-4.10;99.90;;;;;;5032974;28;20045;-87
2023/12/01 07:39:54;;;;;;;18.47;6.63;;;-2.80;99.90;;;;;;5031613;28;20045;-87
2023/12/01 07:42:26;;;;;;;18.50;6.37;;;-3.20;99.90;;;;;;5031319;28;20037;-87
2023/12/01 07:44:51;;;;;;;17.60;6.03;;;-4.60;99.90;;;;;;5033312;28;20049;-86
2023/12/01 07:47:17;;;;;;;17.23;6.07;;;-2.90;99.90;;;;;;5095811;22;20843;-86
2023/12/01 07:49:52;;;;;;;15.83;5.63;;;-3.20;99.90;;;;;;5070595;28;20045;-86
2023/12/01 07:52:19;;;;;;;19.17;5.87;;;-3.20;99.90;;;;;;5071382;28;20040;-86
2023/12/01 07:54:49;;;;;;;18.00;6.37;;;-4.10;99.90;;;;;;5078558;22;20045;-86
2023/12/01 08:04:35;;;;;;;17.33;5.87;;;-2.20;99.90;;;;;;5070876;28;20066;-87
2023/12/01 08:07:09;;;;;;;18.00;6.40;;;-3.40;99.90;;;;;;4954492;28;20174;-86
2023/12/01 08:09:50;;;;;;;21.77;6.53;;;-4.60;99.90;;;;;;4954700;28;20117;-86
2023/12/01 08:12:43;;;;;;;18.67;6.93;;;-3.20;99.90;;;;;;4955091;28;20066;-86
2023/12/01 08:15:21;;;;;;;17.67;6.35;;;-3.30;99.90;;;;;;4955116;28;20053;-87
2023/12/01 08:17:47;;;;;;;20.73;6.63;;;-4.20;99.90;;;;;;4954506;28;20150;-87
2023/12/01 08:20:24;;;;;;;19.63;7.50;;;-3.60;99.90;;;;;;4955266;28;20147;-86
2023/12/01 08:22:50;;;;;;;18.77;6.77;;;-4.20;99.90;;;;;;4959317;28;20057;-86
2023/12/01 08:25:47;;;;;;;21.23;6.70;;;-2.90;99.90;;;;;;5033381;28;20139;-86
2023/12/01 08:28:19;;;;;;;16.40;6.10;;;-4.50;99.90;;;;;;5058280;28;20391;-86
2023/12/01 08:30:53;;;;;;;20.00;6.37;;;-3.50;99.90;;;;;;5075721;28;20060;-86
2023/12/01 08:33:19;;;;;;;20.10;6.50;;;-2.60;99.90;;;;;;5059949;28;20480;-86
2023/12/01 08:35:51;;;;;;;18.40;6.20;;;-4.20;99.90;;;;;;5058268;28;20059;-86
2023/12/01 08:38:32;;;;;;;22.30;7.97;;;-3.80;99.90;;;;;;5057153;28;20045;-86
2023/12/01 08:49:20;;;;;;;22.53;7.57;;;-3.50;99.90;;;;;;5056870;28;20079;-87
2023/12/01 08:51:45;;;;;;;19.33;6.63;;;-3.30;99.90;;;;;;5057030;28;20079;-86
2023/12/01 08:54:21;;;;;;;19.73;7.27;;;-2.20;99.90;;;;;;5057313;28;20778;-87
2023/12/01 08:57:06;;;;;;;22.47;8.47;;;-3.80;99.90;;;;;;5057874;28;20052;-86
2023/12/01 08:59:49;;;;;;;18.83;7.20;;;-3.20;99.90;;;;;;5057211;28;20048;-87
2023/12/01 09:02:27;;;;;;;20.23;8.23;;;-2.60;99.90;;;;;;5057656;28;20067;-86
2023/12/01 09:07:48;;;;;;;22.07;6.80;;;-3.60;99.90;;;;;;5056833;28;20056;-87
2023/12/01 09:10:19;;;;;;;17.83;7.27;;;-2.50;99.90;;;;;;5057060;28;20041;-87
2023/12/01 09:12:45;;;;;;;17.43;6.37;;;-4.50;99.90;;;;;;5087565;22;20052;-87
2023/12/01 09:15:15;;;;;;;20.73;7.70;;;-3.40;99.90;;;;;;5076686;28;20730;-87
2023/12/01 09:17:41;;;;;;;19.17;6.47;;;-2.50;99.90;;;;;;5077667;28;20040;-87
2023/12/01 09:20:27;;;;;;;17.03;5.43;;;-3.50;99.90;;;;;;5077087;28;20399;-87
2023/12/01 09:23:08;;;;;;;20.13;6.97;;;-3.40;99.90;;;;;;5083152;22;20404;-87
2023/12/01 09:25:49;;;;;;;19.47;6.77;;;-3.60;99.90;;;;;;5077052;28;20395;-87
2023/12/01 09:28:21;;;;;;;17.27;6.53;;;-3.40;99.90;;;;;;5085464;28;20070;-86
2023/12/01 09:31:05;;;;;;;19.37;6.87;;;-2.10;99.90;;;;;;5096107;28;20039;-87
2023/12/01 09:33:31;;;;;;;20.07;6.43;;;-3.20;99.90;;;;;;5075692;28;20052;-86
2023/12/01 09:36:06;;;;;;;25.27;8.50;;;-1.40;99.90;;;;;;5075801;28;20131;-87
2023/12/01 09:38:50;;;;;;;22.53;6.77;;;-2.80;99.90;;;;;;5077023;28;20054;-87
2023/12/01 09:41:34;;;;;;;18.73;6.38;;;-1.90;99.90;;;;;;5075821;28;20044;-86
2023/12/01 09:44:03;;;;;;;23.45;6.75;;;-2.70;99.90;;;;;;5076493;28;20048;-87
2023/12/01 09:46:36;;;;;;;18.37;6.83;;;-2.80;99.90;;;;;;5076654;28;20067;-87
2023/12/01 09:49:13;;;;;;;22.33;7.68;;;-1.50;99.90;;;;;;5075513;28;20050;-86
2023/12/01 09:51:39;;;;;;;19.07;7.20;;;-3.00;99.90;;;;;;5076622;28;20047;-87
2023/12/01 09:54:05;;;;;;;22.00;8.07;;;-3.00;99.90;;;;;;5076635;28;20040;-87
2023/12/01 09:56:43;;;;;;;17.73;7.10;;;-1.30;99.90;;;;;;5076024;28;20083;-86
2023/12/01 09:59:10;;;;;;;19.17;7.03;;;-0.70;99.90;;;;;;5076657;28;20040;-87
2023/12/01 10:02:11;;;;;;;23.77;6.40;;;-2.50;99.90;;;;;;5092066;28;20052;-87
2023/12/01 10:04:37;;;;;;;22.00;6.77;;;-2.10;99.90;;;;;;5076430;28;20047;-87
2023/12/01 10:07:21;;;;;;;18.60;6.77;;;-3.10;99.90;;;;;;5076703;28;20047;-87
2023/12/01 10:09:53;;;;;;;19.77;7.35;;;-2.40;99.90;;;;;;5075712;28;20483;-86
2023/12/01 10:12:19;;;;;;;18.80;6.53;;;-4.10;99.90;;;;;;5094791;28;20040;-87
2023/12/01 10:14:50;;;;;;;20.10;7.33;;;-2.70;99.90;;;;;;5076801;28;20058;-87
2023/12/01 10:17:42;;;;;;;21.30;7.23;;;-1.70;99.90;;;;;;5095381;28;20043;-87
2023/12/01 10:20:23;;;;;;;21.37;7.73;;;-1.40;99.90;;;;;;5094168;22;20572;-87
2023/12/01 10:23:18;;;;;;;23.10;7.83;;;-3.10;99.90;;;;;;5076337;28;20048;-87
2023/12/01 10:25:50;;;;;;;18.03;6.67;;;-2.80;99.90;;;;;;5076520;28;20066;-87
2023/12/01 10:28:20;;;;;;;20.53;7.23;;;-1.50;99.90;;;;;;5076192;28;20046;-87
2023/12/01 10:30:57;;;;;;;21.87;7.93;;;-0.80;99.90;;;;;;5075465;28;20040;-87
2023/12/01 10:33:25;;;;;;;21.13;7.70;;;-2.50;99.90;;;;;;5076013;28;20522;-87
2023/12/01 10:36:06;;;;;;;21.00;8.77;;;-2.30;99.90;;;;;;5075957;28;20044;-87
2023/12/01 10:38:52;;;;;;;;;;;;;;;;;;;;;
2023/12/01 10:41:46;;;;;;;21.30;7.33;;;-1.90;99.90;;;;;;5099391;22;20047;-87
2023/12/01 10:45:16;;;;;;;20.87;8.03;;;-0.90;99.90;;;;;;5091012;28;20104;-87
2023/12/01 10:47:44;;;;;;;20.23;7.73;;;-0.70;99.90;;;;;;5075487;28;20415;-87
2023/12/01 10:50:15;;;;;;;21.43;8.37;;;-0.40;99.90;;;;;;5092617;28;20488;-87
2023/12/01 10:52:44;;;;;;;21.13;8.07;;;-1.60;99.90;;;;;;5074824;28;20044;-87
2023/12/01 10:55:13;;;;;;;22.47;8.60;;;-0.80;99.90;;;;;;5075236;28;20090;-87
2023/12/01 10:57:42;;;;;;;16.83;6.80;;;0.20;99.90;;;;;;5077145;28;20044;-87
2023/12/01 11:00:19;;;;;;;17.93;7.10;;;-0.80;99.90;;;;;;5074195;28;20399;-87
2023/12/01 11:03:10;;;;;;;20.37;7.17;;;-1.00;99.90;;;;;;5074692;28;20516;-86
2023/12/01 11:05:49;;;;;;;25.80;11.10;;;0.50;99.90;;;;;;5074646;28;20504;-87
2023/12/01 11:08:34;;;;;;;25.60;11.30;;;-1.10;99.90;;;;;;5075438;28;20126;-87
2023/12/01 11:11:46;;;;;;;22.73;10.20;;;-0.40;99.90;;;;;;5074819;28;20097;-87
2023/12/01 11:14:25;;;;;;;21.43;10.17;;;-0.70;99.90;;;;;;5074374;28;20087;-87
2023/12/01 11:16:57;;;;;;;22.93;10.70;;;-0.90;99.90;;;;;;5075014;28;20403;-87
2023/12/01 11:19:39;;;;;;;21.80;10.00;;;-1.30;99.90;;;;;;5092124;28;20065;-86
2023/12/01 11:22:26;;;;;;;23.17;10.43;;;-0.70;99.90;;;;;;5075012;28;20043;-87
2023/12/01 11:24:57;;;;;;;22.30;10.60;;;-0.70;99.90;;;;;;5093106;28;20040;-87
2023/12/01 11:34:01;;;;;;;25.07;11.30;;;-0.20;99.90;;;;;;5073209;28;20138;-87
2023/12/01 11:36:33;;;;;;;23.63;10.90;;;-0.60;99.90;;;;;;5074847;28;20105;-87
2023/12/01 11:39:11;;;;;;;22.30;10.20;;;-0.20;99.90;;;;;;5074471;28;20036;-87
2023/12/01 11:42:05;;;;;;;21.47;9.50;;;0.10;99.90;;;;;;5073819;28;20051;-87
2023/12/01 11:44:38;;;;;;;22.08;10.35;;;0.40;99.90;;;;;;4974584;28;20050;-87
2023/12/01 11:47:13;;;;;;;22.80;11.00;;;1.00;99.90;;;;;;4974405;28;20065;-87
2023/12/01 11:50:07;;;;;;;24.47;11.33;;;1.10;99.90;;;;;;5043809;28;20553;-88
2023/12/01 11:52:34;;;;;;;20.98;9.98;;;0.30;99.90;;;;;;5075061;28;20048;-88
2023/12/01 11:55:29;;;;;;;23.60;11.27;;;0.50;99.90;;;;;;5072616;28;20093;-88
2023/12/01 11:58:04;;;;;;;25.13;11.93;;;-0.70;99.90;;;;;;5075097;28;20044;-87
2023/12/01 12:00:34;;;;;;;22.93;11.37;;;-0.10;99.90;;;;;;5074839;28;20048;-88
2023/12/01 12:02:59;;;;;;;23.50;11.33;;;1.50;99.90;;;;;;5073200;28;20381;-87
2023/12/01 12:05:56;;;;;;;21.40;10.87;;;0.50;99.90;;;;;;5074569;28;20051;-87
2023/12/01 12:08:34;;;;;;;21.63;10.23;;;-0.90;99.90;;;;;;5092692;28;20036;-87
2023/12/01 12:11:05;;;;;;;20.30;9.80;;;-1.00;99.90;;;;;;5073929;28;20048;-88
2023/12/01 12:14:05;;;;;;;20.53;10.20;;;-0.70;99.90;;;;;;5086947;28;20047;-87
2023/12/01 12:16:52;;;;;;;21.03;9.53;;;-1.20;99.90;;;;;;5056798;28;20072;-87
2023/12/01 12:20:15;;;;;;;22.57;10.83;;;-1.70;99.90;;;;;;5074491;28;20055;-88
2023/12/01 12:22:59;;;;;;;22.93;10.77;;;-1.70;99.90;;;;;;4983017;28;20486;-87
2023/12/01 12:25:35;;;;;;;24.65;10.73;;;-0.90;99.90;;;;;;5082983;28;20476;-87
2023/12/01 12:28:15;;;;;;;19.77;9.70;;;-0.50;99.90;;;;;;5084833;28;20075;-88
2023/12/01 12:30:48;;;;;;;24.50;10.73;;;-0.70;99.90;;;;;;5074728;28;20109;-87
2023/12/01 12:33:20;;;;;;;21.48;11.07;;;-0.70;99.90;;;;;;5074788;28;20125;-87
2023/12/01 12:35:46;;;;;;;22.97;10.90;;;-1.70;99.90;;;;;;5092044;28;20044;-87
2023/12/01 12:40:50;;;;;;;23.07;10.40;;;-1.20;99.90;;;;;;5105887;22;20408;-88
2023/12/01 12:43:20;;;;;;;24.40;10.77;;;-2.10;99.90;;;;;;5079510;22;20044;-88
2023/12/01 12:46:13;;;;;;;24.03;10.47;;;-1.60;99.90;;;;;;5071073;28;20053;-87
2023/12/01 12:48:39;;;;;;;20.05;9.43;;;-1.80;99.90;;;;;;5070640;28;20400;-87
2023/12/01 12:51:18;;;;;;;20.17;8.73;;;-0.40;99.90;;;;;;5070171;28;20036;-88
2023/12/01 12:57:50;;;;;;;19.50;9.00;;;-1.50;99.90;;;;;;5174256;22;20518;-88
2023/12/01 13:00:16;;;;;;;19.30;8.23;;;-0.60;99.90;;;;;;5053581;28;20403;-88
2023/12/01 13:02:45;;;;;;;18.83;8.70;;;-1.10;99.90;;;;;;5054240;28;20044;-88
2023/12/01 13:05:26;;;;;;;19.90;8.87;;;-0.10;99.90;;;;;;5052586;28;20114;-87
2023/12/01 13:11:56;;;;;;;19.10;8.50;;;-0.70;99.90;;;;;;5208725;22;20120;-88
2023/12/01 13:14:28;;;;;;;18.30;8.43;;;-1.40;99.90;;;;;;5057256;28;20139;-87
2023/12/01 13:17:16;;;;;;;20.73;8.90;;;-1.20;99.90;;;;;;5057736;28;20032;-88
2023/12/01 13:20:00;;;;;;;19.83;8.90;;;-1.10;99.90;;;;;;5056441;28;20040;-88
2023/12/01 13:25:33;;;;;;;19.57;9.33;;;-0.70;99.90;;;;;;5057402;28;20048;-88
2023/12/01 13:28:12;;;;;;;21.57;9.63;;;-1.90;99.90;;;;;;5056103;28;20049;-88
2023/12/01 13:30:50;;;;;;;21.27;8.97;;;-1.40;99.90;;;;;;5057251;28;20045;-88
2023/12/01 13:33:37;;;;;;;19.93;9.40;;;-1.40;99.90;;;;;;5058381;28;20056;-88
2023/12/01 13:37:04;;;;;;;20.63;9.33;;;0.30;99.90;;;;;;5057773;28;20044;-89
2023/12/01 13:39:35;;;;;;;20.87;9.80;;;-1.80;99.90;;;;;;4997806;28;20565;-88
2023/12/01 13:42:20;;;;;;;20.57;9.60;;;-1.20;99.90;;;;;;5045247;28;20110;-88
2023/12/01 13:44:46;;;;;;;19.33;9.17;;;-1.30;99.90;;;;;;5057649;28;20037;-88
2023/12/01 13:48:06;;;;;;;23.43;9.80;;;0.60;99.90;;;;;;5055772;28;20773;-88
2023/12/01 13:50:38;;;;;;;19.80;9.13;;;-1.70;99.90;;;;;;5054584;28;20393;-88
2023/12/01 13:53:04;;;;;;;20.07;9.17;;;0.10;99.90;;;;;;5056753;28;20043;-88
2023/12/01 13:56:03;;;;;;;;;;;;;;;;;;;;;
2023/12/01 13:58:56;;;;;;;21.87;10.10;;;-1.30;99.90;;;;;;5063771;22;20053;-88
2023/12/01 14:01:46;;;;;;;;;;;0.20;99.90;;;;;;5056552;28;20399;-88
2023/12/01 14:04:12;;;;;;;22.17;10.03;;;-0.80;99.90;;;;;;5055829;28;20042;-88